createdAt,value
2022-10-29T00:04:21.534Z,102227.13
2022-10-29T00:09:15.323Z,102215.44
2022-10-29T00:14:08.835Z,102355.59
2022-10-29T00:19:02.859Z,102144.53
2022-10-29T00:23:58.687Z,102195.09
2022-10-29T00:28:54.683Z,102333.28
2022-10-29T00:33:48.777Z,102137.56
2022-10-29T00:38:42.634Z,102309.69
2022-10-29T00:43:39.003Z,102321.06
2022-10-29T00:48:36.035Z,102152.81
2022-10-29T00:53:35.265Z,102215.09
2022-10-29T00:58:30.014Z,102117.06
2022-10-29T01:03:24.990Z,102293.59
2022-10-29T01:08:21.887Z,102125.38
2022-10-29T01:13:32.482Z,102228.97
2022-10-29T01:18:36.602Z,102102.06
2022-10-29T01:24:04.797Z,102282.50
2022-10-29T01:29:20.904Z,102226.78
2022-10-29T01:34:24.637Z,102320.94
2022-10-29T01:39:28.822Z,102319.56
2022-10-29T01:44:35.033Z,102109.53
2022-10-29T01:49:34.456Z,102317.53
2022-10-29T01:54:30.400Z,102189.63
2022-10-29T01:59:35.803Z,102314.69
2022-10-29T02:04:54.842Z,102090.59
2022-10-29T02:09:56.294Z,102224.03
2022-10-29T02:14:55.385Z,102071.03
2022-10-29T02:19:53.008Z,102020.63
2022-10-29T02:24:46.298Z,102218.44
2022-10-29T02:29:39.730Z,102210.22
2022-10-29T02:34:33.556Z,102022.22
2022-10-29T02:39:28.442Z,102160.34
2022-10-29T02:44:21.720Z,102164.69
2022-10-29T02:49:14.985Z,102141.03
2022-10-29T02:54:08.242Z,102286.34
2022-10-29T02:59:07.783Z,102164.16
2022-10-29T03:04:04.293Z,102270.97
2022-10-29T03:09:00.004Z,102030.91
2022-10-29T03:13:53.328Z,102206.41
2022-10-29T03:18:48.156Z,102211.53
2022-10-29T03:23:41.491Z,102209.91
2022-10-29T03:28:37.590Z,102162.34
2022-10-29T03:33:31.078Z,102150.56
2022-10-29T03:38:25.972Z,102248.28
2022-10-29T03:43:19.597Z,102256.00
2022-10-29T03:48:12.877Z,101993.00
2022-10-29T03:53:06.230Z,102250.03
2022-10-29T03:58:00.918Z,102143.09
2022-10-29T04:02:54.483Z,102133.41
2022-10-29T04:07:48.189Z,101964.59
2022-10-29T04:12:46.188Z,102212.94
2022-10-29T04:17:40.891Z,102163.66
2022-10-29T04:33:05.387Z,102124.56
2022-10-29T04:37:59.036Z,102191.41
2022-10-29T04:43:22.857Z,102216.56
2022-10-29T04:48:18.881Z,102247.75
2022-10-29T04:53:14.718Z,102047.41
2022-10-29T04:58:41.072Z,102172.69
2022-10-29T05:03:38.945Z,102134.91
2022-10-29T05:08:41.641Z,102091.34
2022-10-29T05:13:35.577Z,102100.72
2022-10-29T05:18:29.162Z,102124.41
2022-10-29T05:23:31.519Z,102033.69
2022-10-29T05:28:28.165Z,102040.31
2022-10-29T05:33:33.861Z,102039.19
2022-10-29T05:38:28.996Z,102154.28
2022-10-29T05:43:26.028Z,102049.44
2022-10-29T05:48:19.644Z,102085.53
2022-10-29T05:53:37.089Z,102044.88
2022-10-29T05:58:39.524Z,102219.66
2022-10-29T06:18:46.003Z,102289.91
2022-10-29T06:23:40.711Z,102277.28
2022-10-29T06:28:35.111Z,102281.25
2022-10-29T06:33:28.328Z,102292.75
2022-10-29T06:38:21.438Z,102294.09
2022-10-29T06:43:15.853Z,102288.66
2022-10-29T06:48:08.975Z,102301.84
2022-10-29T06:53:04.272Z,102246.31
2022-10-29T06:57:58.784Z,102273.69
2022-10-29T07:02:53.434Z,102296.19
2022-10-29T07:07:48.283Z,102310.50
2022-10-29T07:12:42.289Z,102317.28
2022-10-29T07:17:37.797Z,102305.44
2022-10-29T07:22:34.830Z,102273.81
2022-10-29T07:27:30.625Z,102321.09
2022-10-29T07:32:24.717Z,102318.19
2022-10-29T07:37:17.876Z,102301.47
2022-10-29T07:42:12.449Z,102274.81
2022-10-29T07:47:05.586Z,102310.28
2022-10-29T07:51:58.829Z,102312.69
2022-10-29T07:56:53.241Z,102286.91
2022-10-29T08:01:48.087Z,102278.81
2022-10-29T08:06:41.300Z,102269.28
2022-10-29T08:11:34.782Z,102297.06
2022-10-29T08:16:28.276Z,102299.78
2022-10-29T08:21:23.169Z,102293.13
2022-10-29T08:26:16.265Z,102263.97
2022-10-29T08:31:09.375Z,102265.72
2022-10-29T08:36:02.508Z,102284.31
2022-10-29T08:41:15.033Z,102267.22
2022-10-29T08:46:20.642Z,102256.75
2022-10-29T08:51:19.768Z,102268.47
2022-10-29T08:56:19.666Z,102228.16
2022-10-29T09:01:24.585Z,102262.16
2022-10-29T09:06:25.215Z,102265.66
2022-10-29T09:11:40.759Z,102236.38
2022-10-29T09:16:44.167Z,102258.31
2022-10-29T09:21:46.733Z,102240.44
2022-10-29T09:26:49.870Z,102195.66
2022-10-29T09:31:48.349Z,102215.78
2022-10-29T09:36:42.154Z,102199.91
2022-10-29T09:41:36.555Z,102224.97
2022-10-29T09:46:43.121Z,102202.50
2022-10-29T09:51:43.730Z,102211.00
2022-10-29T09:56:37.447Z,102215.78
2022-10-29T10:01:32.201Z,102215.28
2022-10-29T10:06:25.331Z,102200.31
2022-10-29T10:11:21.272Z,102183.72
2022-10-29T10:16:14.948Z,102193.44
2022-10-29T10:21:13.613Z,102192.59
2022-10-29T10:26:06.783Z,102156.34
2022-10-29T10:31:16.234Z,102136.03
2022-10-29T10:36:11.796Z,102153.09
2022-10-29T10:41:08.894Z,102153.16
2022-10-29T10:46:06.560Z,102065.16
2022-10-29T10:51:21.491Z,102102.16
2022-10-29T10:56:20.485Z,102129.84
2022-10-29T11:01:19.047Z,102118.13
2022-10-29T11:06:17.713Z,102133.25
2022-10-29T11:11:16.563Z,102102.16
2022-10-29T11:16:16.410Z,102121.00
2022-10-29T11:21:14.395Z,102115.66
2022-10-29T11:26:14.383Z,102101.66
2022-10-29T11:31:15.286Z,102106.31
2022-10-29T11:36:17.168Z,102082.09
2022-10-29T11:41:23.294Z,102047.94
2022-10-29T11:46:26.162Z,102078.25
2022-10-29T11:51:29.754Z,102060.38
2022-10-29T11:56:33.776Z,102064.44
2022-10-29T12:01:37.289Z,102049.94
2022-10-29T12:06:39.474Z,102049.22
2022-10-29T12:11:43.275Z,102020.03
2022-10-29T12:16:51.621Z,102030.81
2022-10-29T12:21:51.253Z,102030.28
2022-10-29T12:26:49.893Z,102003.88
2022-10-29T12:31:53.835Z,102011.47
2022-10-29T12:36:57.667Z,102010.47
2022-10-29T12:41:54.072Z,101977.41
2022-10-29T12:46:59.509Z,101993.44
2022-10-29T12:56:57.020Z,101995.38
2022-10-29T13:02:10.965Z,101954.53
2022-10-29T13:07:24.222Z,101986.91
2022-10-29T13:13:02.831Z,101972.84
2022-10-29T13:18:00.711Z,101944.81
2022-10-29T13:22:56.436Z,101943.97
2022-10-29T13:27:49.818Z,101965.75
2022-10-29T13:32:43.257Z,101921.25
2022-10-29T13:38:16.396Z,101940.31
2022-10-29T13:43:18.024Z,101960.13
2022-10-29T13:48:28.779Z,101917.56
2022-10-29T13:53:26.888Z,101962.84
2022-10-29T13:58:30.676Z,101951.25
2022-10-29T14:03:34.995Z,101912.00
2022-10-29T14:08:36.893Z,101894.88
2022-10-29T14:13:49.256Z,101940.69
2022-10-29T14:18:54.204Z,101811.34
2022-10-29T14:24:02.218Z,101882.56
2022-10-29T14:29:08.722Z,101781.47
2022-10-29T14:34:11.233Z,101937.38
2022-10-29T14:39:32.687Z,101831.22
2022-10-29T14:44:42.311Z,101878.63
2022-10-29T14:49:53.289Z,101946.78
2022-10-29T14:54:52.843Z,101778.97
2022-10-29T14:59:50.745Z,101932.13
2022-10-29T15:04:51.343Z,101846.84
2022-10-29T15:09:48.111Z,101941.94
2022-10-29T15:14:53.464Z,101829.28
2022-10-29T15:19:55.720Z,101883.06
2022-10-29T15:24:53.498Z,101940.66
2022-10-29T15:29:50.357Z,101904.72
2022-10-29T15:34:50.571Z,101865.19
2022-10-29T15:40:15.354Z,101885.31
2022-10-29T15:45:19.141Z,101798.03
2022-10-29T15:50:15.792Z,101834.50
2022-10-29T15:55:26.360Z,101939.63
2022-10-29T16:00:22.925Z,101937.72
2022-10-29T16:05:17.326Z,101945.75
2022-10-29T16:10:20.662Z,101945.59
2022-10-29T16:15:20.004Z,101848.28
2022-10-29T16:20:18.515Z,101821.44
2022-10-29T16:25:22.850Z,101946.81
2022-10-29T16:30:16.620Z,101964.84
2022-10-29T16:35:15.620Z,101932.69
2022-10-29T16:40:13.542Z,101938.78
2022-10-29T16:45:15.364Z,101876.66
2022-10-29T16:50:09.070Z,101886.44
2022-10-29T16:55:02.964Z,101866.06
2022-10-29T16:59:56.375Z,101746.56
2022-10-29T17:04:52.912Z,101876.94
2022-10-29T17:09:46.241Z,101823.13
2022-10-29T17:14:39.471Z,101972.56
2022-10-29T17:19:32.834Z,101928.22
2022-10-29T17:24:28.025Z,101972.22
2022-10-29T17:29:21.447Z,101888.06
2022-10-29T17:34:14.696Z,101894.16
2022-10-29T17:39:08.424Z,101928.31
2022-10-29T17:44:03.206Z,101972.72
2022-10-29T17:48:57.016Z,101889.78
2022-10-29T17:53:50.352Z,101953.09
2022-10-29T17:58:43.572Z,101950.31
2022-10-29T18:03:38.545Z,101946.44
2022-10-29T18:08:32.117Z,101945.59
2022-10-29T18:13:25.535Z,101936.97
2022-10-29T18:18:18.732Z,101881.16
2022-10-29T18:23:13.510Z,101902.56
2022-10-29T18:28:06.970Z,101879.53
2022-10-29T18:33:00.763Z,101953.81
2022-10-29T18:37:54.960Z,101930.78
2022-10-29T18:42:50.364Z,101852.91
2022-10-29T18:47:43.567Z,101950.97
2022-10-29T18:52:38.987Z,101920.22
2022-10-29T18:57:32.287Z,101863.72
2022-10-29T19:02:27.651Z,101825.34
2022-10-29T19:07:20.997Z,101932.66
2022-10-29T19:12:14.534Z,101929.06
2022-10-29T19:17:08.135Z,101941.88
2022-10-29T19:22:03.018Z,101927.28
2022-10-29T19:26:58.694Z,101826.25
2022-10-29T19:31:52.035Z,101939.16
2022-10-29T19:36:46.169Z,101936.13
2022-10-29T19:41:41.070Z,101906.06
2022-10-29T19:46:34.460Z,101948.19
2022-10-29T19:51:28.631Z,101942.38
2022-10-29T19:56:22.880Z,101758.16
2022-10-29T20:01:19.626Z,101911.09
2022-10-29T20:06:13.494Z,101862.78
2022-10-29T20:11:10.345Z,101940.50
2022-10-29T20:16:09.373Z,101894.28
2022-10-29T20:26:04.205Z,101897.53
2022-10-29T20:31:30.170Z,101710.19
2022-10-29T20:36:26.614Z,101812.75
2022-10-29T20:41:20.456Z,101944.50
2022-10-29T20:46:13.751Z,101941.72
2022-10-29T20:51:07.251Z,101878.69
2022-10-29T20:56:01.954Z,101940.22
2022-10-29T21:00:55.309Z,101866.13
2022-10-29T21:05:51.272Z,101941.50
2022-10-29T21:10:44.955Z,101945.91
2022-10-29T21:15:39.674Z,101764.28
2022-10-29T21:20:42.079Z,101940.06
2022-10-29T21:25:40.046Z,101932.56
2022-10-29T21:30:33.606Z,101896.72
2022-10-29T21:35:30.570Z,101824.91
2022-10-29T21:40:23.737Z,101884.66
2022-10-29T21:45:18.827Z,101909.84
2022-10-29T21:50:12.170Z,101921.50
2022-10-29T21:55:07.598Z,101914.44
2022-10-29T22:00:00.961Z,101807.31
2022-10-29T22:04:54.327Z,101844.66
2022-10-29T22:09:47.683Z,101887.06
2022-10-29T22:14:42.362Z,101912.63
2022-10-29T22:19:35.638Z,101859.31
2022-10-29T22:24:28.754Z,101793.00
2022-10-29T22:29:24.892Z,101805.97
2022-10-29T22:34:19.535Z,101898.94
2022-10-29T22:39:12.749Z,101906.06
2022-10-29T22:44:06.146Z,101824.25
2022-10-29T22:49:01.217Z,101888.88
2022-10-29T22:53:55.944Z,101900.06
2022-10-29T22:58:49.887Z,101884.81
2022-10-29T23:03:44.207Z,101822.47
2022-10-29T23:08:37.597Z,101758.06
2022-10-29T23:13:32.163Z,101765.81
2022-10-29T23:18:25.540Z,101792.72
2022-10-29T23:23:18.741Z,101821.34
2022-10-29T23:28:11.903Z,101878.53
2022-10-29T23:33:06.501Z,101774.88
2022-10-29T23:38:00.042Z,101881.06
2022-10-29T23:42:53.580Z,101879.44
2022-10-29T23:47:46.740Z,101834.91
2022-10-29T23:52:41.748Z,101785.13
2022-10-29T23:57:35.222Z,101875.28
